Terminal Aerodrome Forecast
Issued by NWS

Home | Current Version | Previous Version | Text Only | Print | Product List | Glossary On
Versions: 1 2 3 4 5 6 7 8 9 10 11
019
FTUS46 KSTO 250520
TAFRDD
TAF
KRDD 250520Z 2506/2606 VRB04KT P6SM FEW050 BKN200
     FM251800 19007KT P6SM BKN150
     FM260300 29005KT P6SM OVC060=

USA.gov is the U.S. government's official web portal to all federal, state and local government web resources and services.